Jupiter — WAK3719 — position and weather

sailwx.info

Track history (hours):
 
Tides and Currents Weather Stations Pressure Air Temp Water Temp Dewpoint Dewpoint Depression Visibility Wind Speed Wind Dir Waves Ship Positions

Jupiter

Owner: G & H Towing Company, GALVESTON, TX. More information available from US FCC via Universal Licensing System and Coast Guard Vessel Documentation Center.

Last reported at 2018-May-21 22:29 UTC. Time now 2018-May-21 22:48 UTC.
Position N 29°44' W 095°12'.

Length 27 m; draft 5 m.

Type: Tug. MMSI: 366921780.

Date/timePositionNaut miles runAvg speedWind from/ knotsBaromVisibWave heightAir tempDewpointWater temp
2018-May-21 22:29N 29°44' W 095°12'1 2.5
2018-May-21 21:54N 29°45' W 095°11'2 2.4
2018-May-21 21:13N 29°44' W 095°12'0 0.0
2018-May-21 21:00N 29°44' W 095°12'4 0.2
2018-May-21 03:46N 29°44' W 095°16'0 0.0
2018-May-21 03:28N 29°44' W 095°16'3 0.1
2018-May-19 13:49N 29°44' W 095°13'3 0.5
2018-May-19 06:56N 29°45' W 095°10'1 2.1
2018-May-19 06:25N 29°44' W 095°09'3 6.1
2018-May-19 05:59N 29°45' W 095°12'1 0.1
2018-May-18 23:08N 29°44' W 095°12'0 2.2
2018-May-18 23:00N 29°44' W 095°12'0 0.0
2018-May-18 22:29N 29°45' W 095°12'2 2.1
2018-May-18 21:41N 29°45' W 095°10'3 0.9
2018-May-18 17:57N 29°44' W 095°14'6 1.1
2018-May-18 12:29N 29°44' W 095°07'3 4.8
2018-May-18 11:55N 29°45' W 095°10'0 0.7
2018-May-18 11:18N 29°45' W 095°10'1 4.5
2018-May-18 11:00N 29°44' W 095°09'2 4.1
2018-May-18 10:30N 29°45' W 095°07'0 0.0
2018-May-18 09:57N 29°45' W 095°07'0 0.0
2018-May-18 09:27N 29°45' W 095°07'0 0.0
2018-May-18 08:42N 29°45' W 095°07'0 0.0
2018-May-18 08:27N 29°45' W 095°07'0 0.0
2018-May-18 07:59N 29°45' W 095°07'0 0.0
2018-May-18 07:29N 29°45' W 095°07'0 0.0
2018-May-18 06:59N 29°45' W 095°07'0 0.0
2018-May-18 06:26N 29°45' W 095°07'0 0.0
2018-May-18 05:59N 29°45' W 095°07'3 6.4
2018-May-18 05:30N 29°45' W 095°10'0 0.6
2018-May-18 04:57N 29°45' W 095°11'0 0.0
2018-May-18 04:27N 29°45' W 095°11'0 0.0
2018-May-18 04:00N 29°45' W 095°11'0 0.0
2018-May-18 03:21N 29°45' W 095°11'0 0.0
2018-May-18 02:54N 29°45' W 095°11'1 0.1
2018-May-17 18:20N 29°44' W 095°09'1 0.4
2018-May-17 15:11N 29°45' W 095°11'3 2.1
2018-May-17 13:35N 29°45' W 095°07'0 0.0
2018-May-17 13:30N 29°45' W 095°07'0 0.1
2018-May-17 13:00N 29°44' W 095°07'1 1.6
2018-May-17 12:11N 29°44' W 095°08'0 0.1
2018-May-17 11:50N 29°44' W 095°08'0 1.0
2018-May-17 11:25N 29°44' W 095°08'1 1.4
2018-May-17 11:00N 29°44' W 095°07'0 0.2
2018-May-17 10:25N 29°44' W 095°07'0 0.0
2018-May-17 08:19N 29°44' W 095°07'0 0.0
2018-May-17 07:55N 29°44' W 095°07'0 0.8
2018-May-17 07:29N 29°44' W 095°07'0 0.3
2018-May-17 05:59N 29°44' W 095°07'0 0.0
2018-May-17 05:29N 29°44' W 095°07'0 0.0
2018-May-17 04:56N 29°44' W 095°07'0 0.0
2018-May-17 04:17N 29°44' W 095°07'0 0.0
2018-May-17 03:59N 29°44' W 095°07'0 0.0
2018-May-17 03:29N 29°44' W 095°07'1 1.5
2018-May-17 03:00N 29°44' W 095°08'0 0.2
2018-May-17 02:30N 29°44' W 095°08'1 2.2
2018-May-17 02:00N 29°45' W 095°07'0 0.0
2018-May-16 14:55N 29°45' W 095°07'0 0.0
2018-May-16 14:28N 29°45' W 095°07'0 0.0
2018-May-16 13:58N 29°45' W 095°07'0 0.0
2018-May-16 13:22N 29°45' W 095°07'0 0.0
2018-May-16 12:58N 29°45' W 095°07'0 0.0
2018-May-16 12:25N 29°45' W 095°07'0 0.0
2018-May-16 11:58N 29°45' W 095°07'0 0.0
2018-May-16 11:31N 29°45' W 095°07'2 4.4
2018-May-16 10:59N 29°44' W 095°09'2 3.7
2018-May-16 10:30N 29°45' W 095°11'0 0.0
2018-May-16 10:00N 29°45' W 095°11'1 2.1
2018-May-16 09:30N 29°45' W 095°10'1 1.6
2018-May-16 09:00N 29°45' W 095°11'1 1.2
2018-May-16 07:55N 29°44' W 095°13'2 5.8
2018-May-16 07:30N 29°45' W 095°10'0 0.1
2018-May-16 07:00N 29°45' W 095°10'1 1.3
2018-May-16 06:30N 29°44' W 095°09'2 4.4
2018-May-16 06:00N 29°44' W 095°07'0 0.0
2018-May-16 05:28N 29°44' W 095°07'0 0.0
2018-May-16 04:49N 29°44' W 095°07'0 0.0
2018-May-16 04:28N 29°45' W 095°07'1 3.1
2018-May-16 04:00N 29°44' W 095°08'1 2.9
2018-May-16 03:30N 29°45' W 095°10'0 0.4
2018-May-16 03:00N 29°44' W 095°10'2 4.0
2018-May-16 02:23N 29°44' W 095°07'0 0.0
2018-May-16 01:59N 29°44' W 095°07'3 0.6
2018-May-15 20:41N 29°44' W 095°03'0 0.0
2018-May-15 20:29N 29°44' W 095°03'1 1.9
2018-May-15 19:52N 29°45' W 095°04'2 0.5
2018-May-15 14:29N 29°44' W 095°07'0 0.0
2018-May-15 13:25N 29°44' W 095°07'1 1.4
2018-May-15 13:00N 29°45' W 095°06'0 0.2
2018-May-15 12:30N 29°45' W 095°06'1 1.1
2018-May-15 11:59N 29°45' W 095°07'0 0.0
2018-May-15 11:29N 29°45' W 095°07'0 0.0
2018-May-15 10:56N 29°45' W 095°07'0 0.0
2018-May-15 10:26N 29°45' W 095°07'0 0.0
2018-May-15 09:59N 29°45' W 095°07'0 0.1
2018-May-15 09:29N 29°45' W 095°07'1 0.9
2018-May-15 08:34N 29°44' W 095°07'1 8.2
2018-May-15 08:30N 29°44' W 095°08'4 7.5
2018-May-15 08:00N 29°44' W 095°12'3 1.6
2018-May-15 05:54N 29°44' W 095°16'1 2.3
2018-May-15 05:26N 29°43' W 095°15'2 1.4
2018-May-15 04:20N 29°44' W 095°17'0 0.9
2018-May-15 03:54N 29°44' W 095°16'0 0.7
2018-May-15 03:26N 29°44' W 095°16'0 0.0
2018-May-15 02:56N 29°44' W 095°16'0 0.0
2018-May-15 02:23N 29°44' W 095°16'1 1.7
2018-May-15 01:48N 29°44' W 095°17'1 1.4
2018-May-15 01:21N 29°44' W 095°16'9 0.8
2018-May-14 14:00N 29°45' W 095°07'0 0.2
2018-May-14 13:20N 29°44' W 095°07'3 1.2
2018-May-14 11:14N 29°45' W 095°10'0 0.3
2018-May-14 10:14N 29°44' W 095°09'1 2.5
2018-May-14 09:57N 29°45' W 095°10'0 0.0
2018-May-14 06:31N 29°45' W 095°10'0 0.8
2018-May-14 06:19N 29°45' W 095°10'4 0.5
2018-May-13 21:07N 29°46' W 095°05'0 0.0
2018-May-13 12:33N 29°46' W 095°05'3 7.1
2018-May-13 12:07N 29°44' W 095°08'1 8.5
2018-May-13 12:00N 29°44' W 095°10'0 0.0
2018-May-13 01:47N 29°44' W 095°09'0 0.1
2018-May-12 22:11N 29°44' W 095°10'0 0.3
2018-May-12 21:57N 29°45' W 095°10'2 4.0
2018-May-12 21:26N 29°44' W 095°07'1 0.7
2018-May-12 19:48N 29°45' W 095°06'1 0.8
2018-May-12 18:51N 29°45' W 095°06'0 1.2
2018-May-12 18:29N 29°46' W 095°05'1 2.4
2018-May-12 17:52N 29°45' W 095°07'0 0.0
2018-May-12 17:04N 29°45' W 095°07'0 0.0
2018-May-12 16:42N 29°45' W 095°07'1 1.5
2018-May-12 15:54N 29°44' W 095°08'1 1.9
2018-May-12 15:18N 29°44' W 095°07'0 0.0
2018-May-12 12:47N 29°45' W 095°07'0 0.0
2018-May-12 00:52N 29°44' W 095°07'3 7.0
2018-May-12 00:30N 29°44' W 095°10'  
Track history (hours):
 
Tides and Currents Weather Stations Pressure Air Temp Water Temp Dewpoint Dewpoint Depression Visibility Wind Speed Wind Dir Waves Ship Positions

Jupiter

Owner: G & H Towing Company, GALVESTON, TX. More information available from US FCC via Universal Licensing System and Coast Guard Vessel Documentation Center.

Last reported at 2018-May-21 22:29 UTC. Time now 2018-May-21 22:48 UTC.
Position N 29°44' W 095°12'.

Length 27 m; draft 5 m.

Type: Tug. MMSI: 366921780.

Date/timePositionNaut miles runAvg speedWind from/ knotsBaromVisibWave heightAir tempDewpointWater temp
2018-May-21 22:29N 29°44' W 095°12'1 2.5
2018-May-21 21:54N 29°45' W 095°11'2 2.4
2018-May-21 21:13N 29°44' W 095°12'0 0.0
2018-May-21 21:00N 29°44' W 095°12'4 0.2
2018-May-21 03:46N 29°44' W 095°16'0 0.0
2018-May-21 03:28N 29°44' W 095°16'3 0.1
2018-May-19 13:49N 29°44' W 095°13'3 0.5
2018-May-19 06:56N 29°45' W 095°10'1 2.1
2018-May-19 06:25N 29°44' W 095°09'3 6.1
2018-May-19 05:59N 29°45' W 095°12'1 0.1
2018-May-18 23:08N 29°44' W 095°12'0 2.2
2018-May-18 23:00N 29°44' W 095°12'0 0.0
2018-May-18 22:29N 29°45' W 095°12'2 2.1
2018-May-18 21:41N 29°45' W 095°10'3 0.9
2018-May-18 17:57N 29°44' W 095°14'6 1.1
2018-May-18 12:29N 29°44' W 095°07'3 4.8
2018-May-18 11:55N 29°45' W 095°10'0 0.7
2018-May-18 11:18N 29°45' W 095°10'1 4.5
2018-May-18 11:00N 29°44' W 095°09'2 4.1
2018-May-18 10:30N 29°45' W 095°07'0 0.0
2018-May-18 09:57N 29°45' W 095°07'0 0.0
2018-May-18 09:27N 29°45' W 095°07'0 0.0
2018-May-18 08:42N 29°45' W 095°07'0 0.0
2018-May-18 08:27N 29°45' W 095°07'0 0.0
2018-May-18 07:59N 29°45' W 095°07'0 0.0
2018-May-18 07:29N 29°45' W 095°07'0 0.0
2018-May-18 06:59N 29°45' W 095°07'0 0.0
2018-May-18 06:26N 29°45' W 095°07'0 0.0
2018-May-18 05:59N 29°45' W 095°07'3 6.4
2018-May-18 05:30N 29°45' W 095°10'0 0.6
2018-May-18 04:57N 29°45' W 095°11'0 0.0
2018-May-18 04:27N 29°45' W 095°11'0 0.0
2018-May-18 04:00N 29°45' W 095°11'0 0.0
2018-May-18 03:21N 29°45' W 095°11'0 0.0
2018-May-18 02:54N 29°45' W 095°11'1 0.1
2018-May-17 18:20N 29°44' W 095°09'1 0.4
2018-May-17 15:11N 29°45' W 095°11'3 2.1
2018-May-17 13:35N 29°45' W 095°07'0 0.0
2018-May-17 13:30N 29°45' W 095°07'0 0.1
2018-May-17 13:00N 29°44' W 095°07'1 1.6
2018-May-17 12:11N 29°44' W 095°08'0 0.1
2018-May-17 11:50N 29°44' W 095°08'0 1.0
2018-May-17 11:25N 29°44' W 095°08'1 1.4
2018-May-17 11:00N 29°44' W 095°07'0 0.2
2018-May-17 10:25N 29°44' W 095°07'0 0.0
2018-May-17 08:19N 29°44' W 095°07'0 0.0
2018-May-17 07:55N 29°44' W 095°07'0 0.8
2018-May-17 07:29N 29°44' W 095°07'0 0.3
2018-May-17 05:59N 29°44' W 095°07'0 0.0
2018-May-17 05:29N 29°44' W 095°07'0 0.0
2018-May-17 04:56N 29°44' W 095°07'0 0.0
2018-May-17 04:17N 29°44' W 095°07'0 0.0
2018-May-17 03:59N 29°44' W 095°07'0 0.0
2018-May-17 03:29N 29°44' W 095°07'1 1.5
2018-May-17 03:00N 29°44' W 095°08'0 0.2
2018-May-17 02:30N 29°44' W 095°08'1 2.2
2018-May-17 02:00N 29°45' W 095°07'0 0.0
2018-May-16 14:55N 29°45' W 095°07'0 0.0
2018-May-16 14:28N 29°45' W 095°07'0 0.0
2018-May-16 13:58N 29°45' W 095°07'0 0.0
2018-May-16 13:22N 29°45' W 095°07'0 0.0
2018-May-16 12:58N 29°45' W 095°07'0 0.0
2018-May-16 12:25N 29°45' W 095°07'0 0.0
2018-May-16 11:58N 29°45' W 095°07'0 0.0
2018-May-16 11:31N 29°45' W 095°07'2 4.4
2018-May-16 10:59N 29°44' W 095°09'2 3.7
2018-May-16 10:30N 29°45' W 095°11'0 0.0
2018-May-16 10:00N 29°45' W 095°11'1 2.1
2018-May-16 09:30N 29°45' W 095°10'1 1.6
2018-May-16 09:00N 29°45' W 095°11'1 1.2
2018-May-16 07:55N 29°44' W 095°13'2 5.8
2018-May-16 07:30N 29°45' W 095°10'0 0.1
2018-May-16 07:00N 29°45' W 095°10'1 1.3
2018-May-16 06:30N 29°44' W 095°09'2 4.4
2018-May-16 06:00N 29°44' W 095°07'0 0.0
2018-May-16 05:28N 29°44' W 095°07'0 0.0
2018-May-16 04:49N 29°44' W 095°07'0 0.0
2018-May-16 04:28N 29°45' W 095°07'1 3.1
2018-May-16 04:00N 29°44' W 095°08'1 2.9
2018-May-16 03:30N 29°45' W 095°10'0 0.4
2018-May-16 03:00N 29°44' W 095°10'2 4.0
2018-May-16 02:23N 29°44' W 095°07'0 0.0
2018-May-16 01:59N 29°44' W 095°07'3 0.6
2018-May-15 20:41N 29°44' W 095°03'0 0.0
2018-May-15 20:29N 29°44' W 095°03'1 1.9
2018-May-15 19:52N 29°45' W 095°04'2 0.5
2018-May-15 14:29N 29°44' W 095°07'0 0.0
2018-May-15 13:25N 29°44' W 095°07'1 1.4
2018-May-15 13:00N 29°45' W 095°06'0 0.2
2018-May-15 12:30N 29°45' W 095°06'1 1.1
2018-May-15 11:59N 29°45' W 095°07'0 0.0
2018-May-15 11:29N 29°45' W 095°07'0 0.0
2018-May-15 10:56N 29°45' W 095°07'0 0.0
2018-May-15 10:26N 29°45' W 095°07'0 0.0
2018-May-15 09:59N 29°45' W 095°07'0 0.1
2018-May-15 09:29N 29°45' W 095°07'1 0.9
2018-May-15 08:34N 29°44' W 095°07'1 8.2
2018-May-15 08:30N 29°44' W 095°08'4 7.5
2018-May-15 08:00N 29°44' W 095°12'3 1.6
2018-May-15 05:54N 29°44' W 095°16'1 2.3
2018-May-15 05:26N 29°43' W 095°15'2 1.4
2018-May-15 04:20N 29°44' W 095°17'0 0.9
2018-May-15 03:54N 29°44' W 095°16'0 0.7
2018-May-15 03:26N 29°44' W 095°16'0 0.0
2018-May-15 02:56N 29°44' W 095°16'0 0.0
2018-May-15 02:23N 29°44' W 095°16'1 1.7
2018-May-15 01:48N 29°44' W 095°17'1 1.4
2018-May-15 01:21N 29°44' W 095°16'9 0.8
2018-May-14 14:00N 29°45' W 095°07'0 0.2
2018-May-14 13:20N 29°44' W 095°07'3 1.2
2018-May-14 11:14N 29°45' W 095°10'0 0.3
2018-May-14 10:14N 29°44' W 095°09'1 2.5
2018-May-14 09:57N 29°45' W 095°10'0 0.0
2018-May-14 06:31N 29°45' W 095°10'0 0.8
2018-May-14 06:19N 29°45' W 095°10'4 0.5
2018-May-13 21:07N 29°46' W 095°05'0 0.0
2018-May-13 12:33N 29°46' W 095°05'3 7.1
2018-May-13 12:07N 29°44' W 095°08'1 8.5
2018-May-13 12:00N 29°44' W 095°10'0 0.0
2018-May-13 01:47N 29°44' W 095°09'0 0.1
2018-May-12 22:11N 29°44' W 095°10'0 0.3
2018-May-12 21:57N 29°45' W 095°10'2 4.0
2018-May-12 21:26N 29°44' W 095°07'1 0.7
2018-May-12 19:48N 29°45' W 095°06'1 0.8
2018-May-12 18:51N 29°45' W 095°06'0 1.2
2018-May-12 18:29N 29°46' W 095°05'1 2.4
2018-May-12 17:52N 29°45' W 095°07'0 0.0
2018-May-12 17:04N 29°45' W 095°07'0 0.0
2018-May-12 16:42N 29°45' W 095°07'1 1.5
2018-May-12 15:54N 29°44' W 095°08'1 1.9
2018-May-12 15:18N 29°44' W 095°07'0 0.0
2018-May-12 12:47N 29°45' W 095°07'0 0.0
2018-May-12 00:52N 29°44' W 095°07'3 7.0
2018-May-12 00:30N 29°44' W 095°10'  

Dump ship's entire track history